createdAt,value
2019-02-16T00:01:22.169Z,3.10
2019-02-16T00:03:49.208Z,3.10
2019-02-16T00:06:16.327Z,3.10
2019-02-16T00:08:43.457Z,3.10
2019-02-16T00:11:10.607Z,3.10
2019-02-16T00:13:37.707Z,3.00
2019-02-16T00:16:04.827Z,3.00
2019-02-16T00:18:32.227Z,3.00
2019-02-16T00:21:03.960Z,3.00
2019-02-16T00:23:28.286Z,3.00
2019-02-16T00:25:55.427Z,3.00
2019-02-16T00:28:22.610Z,3.00
2019-02-16T00:30:49.788Z,2.90
2019-02-16T00:33:17.828Z,3.00
2019-02-16T00:35:44.927Z,3.00
2019-02-16T00:38:12.047Z,2.90
2019-02-16T00:40:39.185Z,2.90
2019-02-16T00:43:06.329Z,2.90
2019-02-16T00:45:33.427Z,2.90
2019-02-16T00:48:00.567Z,2.80
2019-02-16T00:50:27.712Z,2.80
2019-02-16T00:52:54.827Z,2.90
2019-02-16T00:55:21.946Z,2.90
2019-02-16T00:57:49.059Z,2.90
2019-02-16T01:00:16.147Z,3.00
2019-02-16T01:02:43.307Z,2.90
2019-02-16T01:05:10.507Z,2.80
2019-02-16T01:07:37.587Z,2.90
2019-02-16T01:10:07.245Z,2.90
2019-02-16T01:12:34.313Z,3.00
2019-02-16T01:15:01.451Z,2.90
2019-02-16T01:17:28.546Z,2.90
2019-02-16T01:19:55.647Z,2.80
2019-02-16T01:22:22.769Z,2.80
2019-02-16T01:24:49.907Z,2.80
2019-02-16T01:27:17.027Z,2.70
2019-02-16T01:29:44.154Z,2.70
2019-02-16T01:32:11.291Z,2.60
2019-02-16T01:34:38.407Z,2.60
2019-02-16T01:37:05.508Z,2.80
2019-02-16T01:39:32.655Z,2.80
2019-02-16T01:41:59.967Z,2.80
2019-02-16T01:44:26.986Z,2.80
2019-02-16T01:46:54.127Z,2.80
2019-02-16T01:49:21.287Z,2.80
2019-02-16T01:51:48.447Z,2.80
2019-02-16T01:54:15.527Z,2.80
2019-02-16T01:56:42.627Z,2.80
2019-02-16T01:59:09.786Z,2.70
2019-02-16T02:01:36.886Z,2.80
2019-02-16T02:04:03.947Z,2.80
2019-02-16T02:06:31.647Z,2.80
2019-02-16T02:08:58.746Z,2.80
2019-02-16T02:11:26.287Z,2.80
2019-02-16T02:13:53.447Z,2.80
2019-02-16T02:16:20.595Z,2.80
2019-02-16T02:18:47.648Z,2.80
2019-02-16T02:21:14.768Z,2.80
2019-02-16T02:23:41.826Z,2.70
2019-02-16T02:26:08.947Z,2.70
2019-02-16T02:28:36.030Z,2.70
2019-02-16T02:31:03.166Z,2.80
2019-02-16T02:33:30.334Z,2.70
2019-02-16T02:35:57.367Z,2.60
2019-02-16T02:38:24.507Z,2.60
2019-02-16T02:40:51.693Z,2.60
2019-02-16T02:43:18.907Z,2.60
2019-02-16T02:45:46.134Z,2.50
2019-02-16T02:48:13.266Z,2.50
2019-02-16T02:50:40.806Z,2.50
2019-02-16T02:53:07.947Z,2.50
2019-02-16T02:55:35.203Z,2.40
2019-02-16T02:58:02.347Z,2.40
2019-02-16T03:00:29.527Z,2.40
2019-02-16T03:02:56.867Z,2.30
2019-02-16T03:05:24.026Z,2.30
2019-02-16T03:07:51.127Z,2.30
2019-02-16T03:10:18.246Z,2.40
2019-02-16T03:12:45.346Z,2.30
2019-02-16T03:15:12.448Z,2.40
2019-02-16T03:17:39.535Z,2.40
2019-02-16T03:20:06.667Z,2.50
2019-02-16T03:23:11.174Z,2.40
2019-02-16T03:25:38.248Z,2.40
2019-02-16T03:28:30.187Z,2.40
2019-02-16T03:31:30.093Z,2.40
2019-02-16T03:34:23.526Z,2.40
2019-02-16T03:37:35.068Z,2.50
2019-02-16T03:40:02.189Z,2.50
2019-02-16T03:42:29.369Z,2.50
2019-02-16T03:44:56.488Z,2.40
2019-02-16T03:47:23.626Z,2.30
2019-02-16T03:49:50.695Z,2.10
2019-02-16T03:52:17.751Z,2.10
2019-02-16T03:54:44.819Z,2.20
2019-02-16T03:57:12.028Z,2.20
2019-02-16T03:59:39.091Z,2.20
2019-02-16T04:02:06.328Z,2.10
2019-02-16T04:04:33.589Z,2.10
2019-02-16T04:07:00.691Z,2.10
2019-02-16T04:09:27.772Z,2.10
2019-02-16T04:11:54.842Z,2.10
2019-02-16T04:14:21.989Z,2.00
2019-02-16T04:16:49.111Z,2.00
2019-02-16T04:19:16.310Z,2.00
2019-02-16T04:21:43.440Z,2.00
2019-02-16T04:24:10.552Z,2.00
2019-02-16T04:26:37.685Z,2.00
2019-02-16T04:29:04.810Z,2.00
2019-02-16T04:31:31.906Z,1.90
2019-02-16T04:33:59.051Z,1.90
2019-02-16T04:36:26.150Z,1.90
2019-02-16T04:38:53.270Z,1.80
2019-02-16T04:41:20.649Z,1.80
2019-02-16T04:43:48.215Z,1.90
2019-02-16T04:46:15.330Z,1.90
2019-02-16T04:48:42.402Z,1.90
2019-02-16T04:51:09.871Z,1.90
2019-02-16T04:53:37.030Z,1.90
2019-02-16T04:56:04.131Z,1.90
2019-02-16T04:58:31.315Z,1.90
2019-02-16T05:00:58.411Z,1.80
2019-02-16T05:03:25.552Z,1.80
2019-02-16T05:05:52.970Z,1.80
2019-02-16T05:08:20.069Z,1.80
2019-02-16T05:10:47.190Z,1.80
2019-02-16T05:13:14.385Z,1.80
2019-02-16T05:15:41.470Z,1.80
2019-02-16T05:18:08.690Z,1.80
2019-02-16T05:20:35.810Z,1.80
2019-02-16T05:23:02.930Z,1.80
2019-02-16T05:25:30.110Z,1.70
2019-02-16T05:27:57.255Z,1.70
2019-02-16T05:30:24.410Z,1.80
2019-02-16T05:32:51.533Z,1.70
2019-02-16T05:35:18.689Z,1.70
2019-02-16T05:37:45.876Z,1.70
2019-02-16T05:40:12.990Z,1.60
2019-02-16T05:42:40.089Z,1.60
2019-02-16T05:45:08.691Z,1.70
2019-02-16T05:47:35.811Z,1.60
2019-02-16T05:50:03.526Z,1.60
2019-02-16T05:52:30.590Z,1.60
2019-02-16T05:54:57.711Z,1.60
2019-02-16T05:57:24.870Z,1.60
2019-02-16T05:59:52.010Z,1.60
2019-02-16T06:02:19.052Z,1.60
2019-02-16T06:04:46.212Z,1.60
2019-02-16T06:07:13.335Z,1.60
2019-02-16T06:09:40.553Z,1.70
2019-02-16T06:12:07.655Z,1.70
2019-02-16T06:14:34.834Z,1.80
2019-02-16T06:17:02.033Z,1.80
2019-02-16T06:19:29.153Z,1.80
2019-02-16T06:21:56.373Z,1.80
2019-02-16T06:24:23.433Z,1.90
2019-02-16T06:26:50.886Z,1.90
2019-02-16T06:29:17.983Z,1.90
2019-02-16T06:31:45.166Z,2.00
2019-02-16T06:34:12.226Z,2.00
2019-02-16T06:36:39.367Z,2.00
2019-02-16T06:39:06.650Z,2.10
2019-02-16T06:41:33.797Z,2.20
2019-02-16T06:44:00.877Z,2.20
2019-02-16T06:46:27.899Z,2.30
2019-02-16T06:48:55.017Z,2.40
2019-02-16T06:51:22.158Z,2.50
2019-02-16T06:53:49.303Z,2.60
2019-02-16T06:56:24.337Z,2.70
2019-02-16T06:58:51.417Z,2.80
2019-02-16T07:01:18.919Z,2.90
2019-02-16T07:03:46.057Z,2.80
2019-02-16T07:06:13.142Z,3.00
2019-02-16T07:08:40.216Z,2.90
2019-02-16T07:11:07.336Z,3.00
2019-02-16T07:13:34.397Z,3.20
2019-02-16T07:16:20.078Z,3.20
2019-02-16T07:18:54.797Z,3.30
2019-02-16T07:21:21.829Z,3.50
2019-02-16T07:23:48.964Z,3.70
2019-02-16T07:26:35.878Z,3.60
2019-02-16T07:29:02.976Z,3.60
2019-02-16T07:31:30.103Z,3.70
2019-02-16T07:33:57.257Z,3.70
2019-02-16T07:36:24.409Z,3.90
2019-02-16T07:38:51.657Z,4.10
2019-02-16T07:41:18.717Z,4.20
2019-02-16T07:43:50.699Z,4.20
2019-02-16T07:46:19.617Z,4.20
2019-02-16T07:48:48.557Z,4.30
2019-02-16T07:51:17.496Z,4.40
2019-02-16T07:53:46.428Z,4.50
2019-02-16T07:56:15.356Z,4.70
2019-02-16T07:58:44.336Z,4.70
2019-02-16T08:01:22.386Z,4.90
2019-02-16T08:03:51.437Z,5.00
2019-02-16T08:06:37.105Z,4.90
2019-02-16T08:09:15.468Z,5.00
2019-02-16T08:12:00.957Z,5.00
2019-02-16T08:14:32.717Z,5.30
2019-02-16T08:17:13.977Z,5.50
2019-02-16T08:19:57.998Z,5.60
2019-02-16T08:22:26.917Z,5.70
2019-02-16T08:24:55.837Z,5.80
2019-02-16T08:27:25.097Z,5.80
2019-02-16T08:29:56.796Z,5.90
2019-02-16T08:32:28.748Z,6.20
2019-02-16T08:35:09.790Z,6.40
2019-02-16T08:37:38.788Z,6.70
2019-02-16T08:40:07.703Z,6.70
2019-02-16T08:45:43.123Z,7.00
2019-02-16T08:48:30.205Z,7.20
2019-02-16T08:51:14.423Z,7.20
2019-02-16T08:54:01.463Z,7.40
2019-02-16T08:56:33.303Z,7.40
2019-02-16T09:01:56.483Z,7.60
2019-02-16T09:04:25.473Z,7.60
2019-02-16T09:07:00.526Z,7.70
2019-02-16T09:09:44.503Z,7.80
2019-02-16T09:12:13.466Z,7.80
2019-02-16T09:14:42.402Z,7.90
2019-02-16T09:17:23.416Z,8.10
2019-02-16T09:20:09.163Z,8.10
2019-02-16T09:22:38.205Z,8.20
2019-02-16T09:25:17.183Z,8.40
2019-02-16T09:27:46.145Z,8.50
2019-02-16T09:30:30.145Z,9.00
2019-02-16T09:33:15.543Z,9.20
2019-02-16T09:35:56.542Z,9.30
2019-02-16T09:38:42.004Z,9.20
2019-02-16T09:41:16.562Z,9.70
2019-02-16T09:43:45.504Z,9.90
2019-02-16T09:46:14.802Z,10.20
2019-02-16T09:48:43.744Z,9.80
2019-02-16T09:51:12.703Z,10.00
2019-02-16T09:53:41.703Z,10.10
2019-02-16T09:56:13.383Z,10.30
2019-02-16T09:58:42.362Z,10.40
2019-02-16T10:01:26.590Z,10.40
2019-02-16T10:04:12.149Z,10.50
2019-02-16T10:06:43.770Z,10.40
2019-02-16T10:09:27.809Z,10.20
2019-02-16T10:11:56.751Z,10.20
2019-02-16T10:14:28.712Z,10.40
2019-02-16T10:17:03.507Z,10.60
2019-02-16T10:19:50.664Z,10.60
2019-02-16T10:22:19.622Z,10.90
2019-02-16T10:24:51.023Z,11.00
2019-02-16T10:27:38.352Z,11.20
2019-02-16T10:30:13.923Z,11.20
2019-02-16T10:32:55.283Z,11.40
2019-02-16T10:35:27.063Z,11.60
2019-02-16T10:38:04.824Z,11.60
2019-02-16T10:40:36.770Z,11.80
2019-02-16T10:43:22.368Z,11.90
2019-02-16T10:46:09.669Z,11.90
2019-02-16T10:48:44.769Z,11.60
2019-02-16T10:51:16.590Z,11.70
2019-02-16T10:53:57.959Z,11.60
2019-02-16T10:56:29.469Z,11.70
2019-02-16T10:59:15.009Z,11.80
2019-02-16T11:01:49.649Z,12.00
2019-02-16T11:04:21.552Z,12.20
2019-02-16T11:06:56.209Z,12.20
2019-02-16T11:09:34.250Z,12.10
2019-02-16T11:12:03.210Z,12.40
2019-02-16T11:14:41.447Z,12.60
2019-02-16T11:17:19.702Z,12.80
2019-02-16T11:19:57.704Z,12.80
2019-02-16T11:22:26.663Z,12.90
2019-02-16T11:25:01.365Z,13.00
2019-02-16T11:27:30.327Z,13.10
2019-02-16T11:30:05.283Z,13.20
2019-02-16T11:32:40.203Z,13.40
2019-02-16T11:35:12.246Z,13.30
2019-02-16T11:37:41.180Z,13.40
2019-02-16T11:40:13.263Z,13.20
2019-02-16T11:42:58.505Z,13.30
2019-02-16T11:45:27.504Z,13.40
2019-02-16T11:48:00.785Z,13.50
2019-02-16T11:50:45.377Z,13.40
2019-02-16T11:53:23.376Z,13.60
2019-02-16T11:55:58.396Z,13.70
2019-02-16T11:58:33.382Z,13.70
2019-02-16T12:04:05.739Z,13.70
2019-02-16T12:06:37.500Z,13.90
2019-02-16T12:09:10.457Z,13.90
2019-02-16T12:11:39.398Z,14.00
2019-02-16T12:14:25.143Z,14.00
2019-02-16T12:16:59.731Z,14.10
2019-02-16T12:19:28.711Z,14.10
2019-02-16T12:21:57.710Z,14.20
2019-02-16T12:24:26.650Z,14.20
2019-02-16T12:27:13.709Z,14.20
2019-02-16T12:29:48.409Z,14.30
2019-02-16T12:32:17.429Z,14.10
2019-02-16T12:37:52.823Z,14.10
2019-02-16T12:40:21.757Z,14.10
2019-02-16T12:42:59.517Z,14.00
2019-02-16T12:45:37.536Z,14.10
2019-02-16T12:48:15.819Z,14.10
2019-02-16T12:50:56.458Z,14.20
2019-02-16T12:53:42.038Z,14.20
2019-02-16T12:56:10.957Z,14.30
2019-02-16T12:58:39.957Z,14.60
2019-02-16T13:01:24.165Z,14.60
2019-02-16T13:03:53.098Z,14.60
2019-02-16T13:06:28.025Z,14.70
2019-02-16T13:09:03.520Z,14.50
2019-02-16T13:11:49.326Z,14.70
2019-02-16T13:14:35.111Z,14.70
2019-02-16T13:17:04.017Z,14.80
2019-02-16T13:19:49.435Z,14.80
2019-02-16T13:22:21.355Z,15.00
2019-02-16T13:24:53.431Z,15.10
2019-02-16T13:27:31.431Z,15.20
2019-02-16T13:30:15.511Z,15.20
2019-02-16T13:32:44.491Z,15.10
2019-02-16T13:35:16.218Z,15.10
2019-02-16T13:37:48.116Z,15.00
2019-02-16T13:40:22.814Z,15.00
2019-02-16T13:42:54.632Z,15.10
2019-02-16T13:45:23.508Z,15.20
2019-02-16T13:47:52.393Z,15.20
2019-02-16T13:50:21.569Z,15.20
2019-02-16T13:52:50.884Z,15.20
2019-02-16T13:55:22.567Z,15.40
2019-02-16T13:57:54.307Z,15.40
2019-02-16T14:00:23.209Z,15.30
2019-02-16T14:03:07.289Z,15.50
2019-02-16T14:05:36.167Z,15.40
2019-02-16T14:08:11.374Z,15.30
2019-02-16T14:10:49.366Z,15.30
2019-02-16T14:13:18.430Z,15.40
2019-02-16T14:15:47.387Z,15.30
2019-02-16T14:18:14.449Z,15.10
2019-02-16T14:20:41.538Z,15.10
2019-02-16T14:23:10.027Z,15.10
2019-02-16T14:25:44.933Z,15.20
2019-02-16T14:28:10.687Z,15.20
2019-02-16T14:30:37.772Z,15.20
2019-02-16T14:33:04.893Z,15.20
2019-02-16T14:35:32.066Z,15.20
2019-02-16T14:38:03.992Z,15.10
2019-02-16T14:40:31.762Z,15.10
2019-02-16T14:42:58.842Z,15.00
2019-02-16T14:45:26.002Z,15.10
2019-02-16T14:47:53.118Z,15.00
2019-02-16T14:50:20.188Z,15.00
2019-02-16T14:52:47.223Z,15.00
2019-02-16T14:55:17.511Z,15.00
2019-02-16T14:57:44.732Z,15.10
2019-02-16T15:00:12.366Z,15.10
2019-02-16T15:02:39.565Z,15.00
2019-02-16T15:05:09.091Z,15.10
2019-02-16T15:07:36.206Z,15.10
2019-02-16T15:10:08.626Z,15.10
2019-02-16T15:12:35.744Z,15.10
2019-02-16T15:15:05.031Z,15.00
2019-02-16T15:17:32.114Z,14.90
2019-02-16T15:19:59.395Z,15.00
2019-02-16T15:22:26.456Z,14.80
2019-02-16T15:24:53.636Z,14.60
2019-02-16T15:27:20.671Z,14.60
2019-02-16T15:29:47.757Z,14.50
2019-02-16T15:32:14.802Z,14.50
2019-02-16T15:34:41.923Z,14.40
2019-02-16T15:37:09.083Z,14.40
2019-02-16T15:39:36.184Z,14.20
2019-02-16T15:42:03.298Z,14.10
2019-02-16T15:44:30.341Z,13.90
2019-02-16T15:46:57.453Z,13.90
2019-02-16T15:49:24.568Z,13.80
2019-02-16T15:51:51.729Z,13.70
2019-02-16T15:54:18.828Z,13.60
2019-02-16T15:56:45.835Z,13.50
2019-02-16T15:59:13.005Z,13.40
2019-02-16T16:01:40.231Z,13.30
2019-02-16T16:04:07.357Z,13.20
2019-02-16T16:06:34.492Z,13.10
2019-02-16T16:09:19.877Z,12.90
2019-02-16T16:11:48.898Z,12.80
2019-02-16T16:14:17.718Z,12.60
2019-02-16T16:17:03.249Z,12.40
2019-02-16T16:19:32.229Z,12.20
2019-02-16T16:22:03.924Z,12.00
2019-02-16T16:24:38.412Z,11.70
2019-02-16T16:27:13.580Z,11.40
2019-02-16T16:30:01.058Z,11.10
2019-02-16T16:32:41.843Z,10.90
2019-02-16T16:35:16.964Z,10.60
2019-02-16T16:37:52.084Z,10.40
2019-02-16T16:40:37.843Z,10.10
2019-02-16T16:43:15.846Z,9.90
2019-02-16T16:45:44.864Z,9.60
2019-02-16T16:48:30.723Z,9.40
2019-02-16T16:51:02.686Z,9.20
2019-02-16T16:53:43.346Z,9.00
2019-02-16T16:56:28.761Z,8.80
2019-02-16T16:59:10.824Z,8.60
2019-02-16T17:01:39.743Z,8.40
2019-02-16T17:04:25.281Z,8.20
2019-02-16T17:07:03.499Z,8.00
2019-02-16T17:12:37.419Z,7.70
2019-02-16T17:15:10.658Z,7.60
2019-02-16T17:17:45.549Z,7.50
2019-02-16T17:20:14.437Z,7.50
2019-02-16T17:22:55.525Z,7.40
2019-02-16T17:25:40.635Z,7.40
2019-02-16T17:28:12.345Z,7.40
2019-02-16T17:30:44.307Z,7.40
2019-02-16T17:33:25.366Z,7.30
2019-02-16T17:35:57.405Z,7.30
2019-02-16T17:38:35.266Z,7.30
2019-02-16T17:41:09.988Z,7.20
2019-02-16T17:43:44.526Z,7.10
2019-02-16T17:46:22.329Z,7.10
2019-02-16T17:48:53.885Z,7.00
2019-02-16T17:51:22.886Z,6.90
2019-02-16T17:53:57.404Z,6.90
2019-02-16T17:56:29.408Z,6.80
2019-02-16T17:59:04.234Z,6.70
2019-02-16T18:01:33.335Z,6.60
2019-02-16T18:04:02.267Z,6.50
2019-02-16T18:06:40.235Z,6.40
2019-02-16T18:09:27.380Z,6.40
2019-02-16T18:12:05.136Z,6.30
2019-02-16T18:14:42.976Z,6.20
2019-02-16T18:17:28.097Z,6.10
2019-02-16T18:19:59.944Z,6.10
2019-02-16T18:22:28.966Z,6.10
2019-02-16T18:24:57.793Z,6.00
2019-02-16T18:27:29.620Z,6.00
2019-02-16T18:29:58.566Z,5.90
2019-02-16T18:32:43.033Z,5.90
2019-02-16T18:35:11.952Z,5.80
2019-02-16T18:37:43.727Z,5.80
2019-02-16T18:40:18.947Z,5.90
2019-02-16T18:43:03.014Z,5.80
2019-02-16T18:45:48.775Z,5.80
2019-02-16T18:48:17.774Z,5.70
2019-02-16T18:50:49.486Z,5.70
2019-02-16T18:53:27.484Z,5.70
2019-02-16T18:55:58.875Z,5.60
2019-02-16T18:58:27.931Z,5.50
2019-02-16T19:00:56.889Z,5.50
2019-02-16T19:04:01.995Z,5.50
2019-02-16T19:06:42.971Z,5.40
2019-02-16T19:09:29.751Z,5.40
2019-02-16T19:14:59.256Z,5.30
2019-02-16T19:17:37.031Z,5.20
2019-02-16T19:20:15.171Z,5.20
2019-02-16T19:22:46.812Z,5.20
2019-02-16T19:25:15.792Z,5.20
2019-02-16T19:27:53.997Z,5.10
2019-02-16T19:30:23.016Z,5.00
2019-02-16T19:33:14.665Z,4.90
2019-02-16T19:35:43.656Z,4.90
2019-02-16T19:38:12.976Z,4.80
2019-02-16T19:43:38.938Z,4.70
2019-02-16T19:46:13.956Z,4.60
2019-02-16T19:48:45.504Z,4.60
2019-02-16T19:51:14.423Z,4.60
2019-02-16T19:53:45.905Z,4.50
2019-02-16T19:56:14.843Z,4.50
2019-02-16T19:58:52.742Z,4.50
2019-02-16T20:01:30.943Z,4.40
2019-02-16T20:04:16.662Z,4.40
2019-02-16T20:06:45.603Z,4.40
2019-02-16T20:09:14.964Z,4.40
2019-02-16T20:11:46.769Z,4.40
2019-02-16T20:14:24.783Z,4.30
2019-02-16T20:17:06.044Z,4.30
2019-02-16T20:19:35.025Z,4.30
2019-02-16T20:22:09.802Z,4.20
2019-02-16T20:24:44.862Z,4.20
2019-02-16T20:27:13.782Z,4.20
2019-02-16T20:29:45.521Z,4.30
2019-02-16T20:32:20.418Z,4.20
2019-02-16T20:34:49.361Z,4.20
2019-02-16T20:37:24.601Z,4.20
2019-02-16T20:39:56.617Z,4.20
2019-02-16T20:42:43.776Z,4.20
2019-02-16T20:45:27.540Z,4.20
2019-02-16T20:47:59.838Z,4.20
2019-02-16T20:50:46.841Z,4.10
2019-02-16T20:53:25.159Z,4.10
2019-02-16T20:56:05.979Z,4.10
2019-02-16T20:58:43.798Z,4.00
2019-02-16T21:01:21.937Z,4.00
2019-02-16T21:04:07.477Z,3.90
2019-02-16T21:06:38.956Z,3.90
2019-02-16T21:09:08.373Z,3.90
2019-02-16T21:11:46.213Z,3.90
2019-02-16T21:14:17.813Z,3.80
2019-02-16T21:17:03.393Z,3.80
2019-02-16T21:19:32.414Z,3.80
2019-02-16T21:22:01.385Z,3.80
2019-02-16T21:24:34.553Z,3.80
2019-02-16T21:27:03.600Z,3.80
2019-02-16T21:29:41.614Z,3.70
2019-02-16T21:32:19.814Z,3.70
2019-02-16T21:34:48.777Z,3.70
2019-02-16T21:37:27.257Z,3.70
2019-02-16T21:39:56.177Z,3.70
2019-02-16T21:42:31.134Z,3.70
2019-02-16T21:45:06.273Z,3.60
2019-02-16T21:47:35.475Z,3.60
2019-02-16T21:50:16.975Z,3.60
2019-02-16T21:52:45.993Z,3.60
2019-02-16T21:55:14.914Z,3.60
2019-02-16T21:57:56.214Z,3.60
2019-02-16T22:00:42.106Z,3.60
2019-02-16T22:03:28.057Z,3.50
2019-02-16T22:05:59.777Z,3.50
2019-02-16T22:08:34.721Z,3.50
2019-02-16T22:11:06.158Z,3.40
2019-02-16T22:13:33.278Z,3.40
2019-02-16T22:16:00.579Z,3.40
2019-02-16T22:18:27.699Z,3.40
2019-02-16T22:20:54.803Z,3.40
2019-02-16T22:23:22.022Z,3.40
2019-02-16T22:25:49.220Z,3.40
2019-02-16T22:28:20.450Z,3.30
2019-02-16T22:30:45.457Z,3.30
2019-02-16T22:33:12.524Z,3.30
2019-02-16T22:35:39.719Z,3.30
2019-02-16T22:38:06.823Z,3.30
2019-02-16T22:40:33.914Z,3.20
2019-02-16T22:43:01.054Z,3.20
2019-02-16T22:45:28.295Z,3.20
2019-02-16T22:47:55.415Z,3.20
2019-02-16T22:50:22.574Z,3.20
2019-02-16T22:52:49.661Z,3.20
2019-02-16T22:55:16.815Z,3.20
2019-02-16T22:57:43.977Z,3.20
2019-02-16T23:00:32.195Z,3.20
2019-02-16T23:02:59.314Z,3.20
2019-02-16T23:05:26.397Z,3.20
2019-02-16T23:07:53.494Z,3.10
2019-02-16T23:10:20.574Z,3.10
2019-02-16T23:12:47.953Z,3.10
2019-02-16T23:15:15.096Z,3.10
2019-02-16T23:17:42.195Z,3.10
2019-02-16T23:20:10.698Z,3.00
2019-02-16T23:22:37.868Z,3.00
2019-02-16T23:25:08.846Z,3.00
2019-02-16T23:27:36.127Z,3.00
2019-02-16T23:30:08.366Z,3.00
2019-02-16T23:32:35.586Z,3.00
2019-02-16T23:35:03.107Z,3.00
2019-02-16T23:37:30.346Z,2.90
2019-02-16T23:39:57.454Z,2.90
2019-02-16T23:42:24.608Z,2.90
2019-02-16T23:44:51.747Z,2.90
2019-02-16T23:47:18.827Z,2.90
2019-02-16T23:49:46.041Z,2.90
2019-02-16T23:52:13.206Z,2.90
2019-02-16T23:54:40.326Z,2.90
2019-02-16T23:57:07.387Z,2.90
2019-02-16T23:59:34.485Z,2.90
